Time;durP1;ratioP1;P1;durP2;ratioP2;P2;SDS_P1;SDS_P2;PMS_P1;PMS_P2;Temp;Humidity;BMP_temperature;BMP_pressure;BME280_temperature;BME280_humidity;BME280_pressure;Samples;Min_cycle;Max_cycle;Signal;HPM_P1;HPM_P2
2021/11/19 00:02:17;;;;;;;8.80;3.50;;;9.20;97.30;;;;;;5033082;28;20173;-84
2021/11/19 00:04:43;;;;;;;16.30;4.27;;;9.20;97.30;;;;;;5031837;28;20180;-84
2021/11/19 00:07:10;;;;;;;19.63;4.77;;;9.20;97.30;;;;;;5031628;28;20464;-83
2021/11/19 00:09:37;;;;;;;9.60;4.03;;;9.20;97.30;;;;;;5032806;28;20417;-82
2021/11/19 00:12:04;;;;;;;10.77;4.00;;;9.20;97.30;;;;;;5031536;28;20914;-84
2021/11/19 00:14:30;;;;;;;16.60;4.30;;;9.20;97.30;;;;;;5014066;28;20504;-84
2021/11/19 00:17:00;;;;;;;8.53;3.67;;;9.20;97.30;;;;;;5016889;28;20883;-83
2021/11/19 00:19:27;;;;;;;13.00;5.00;;;9.20;97.30;;;;;;5031629;28;20173;-85
2021/11/19 00:21:53;;;;;;;13.73;4.63;;;9.20;97.30;;;;;;5032201;28;20475;-83
2021/11/19 00:24:19;;;;;;;11.40;4.90;;;9.20;97.30;;;;;;5016467;28;20944;-84
2021/11/19 00:26:45;;;;;;;20.70;4.93;;;9.20;97.30;;;;;;5020245;28;20432;-82
2021/11/19 00:29:13;;;;;;;9.93;4.30;;;9.20;97.30;;;;;;5031843;28;20416;-83
2021/11/19 00:31:40;;;;;;;13.30;4.60;;;9.20;97.30;;;;;;5031500;28;20412;-81
2021/11/19 00:34:06;;;;;;;15.67;5.63;;;9.20;97.30;;;;;;5017780;28;20421;-81
2021/11/19 00:36:34;;;;;;;11.00;6.70;;;9.20;97.30;;;;;;4997118;28;20440;-82
2021/11/19 00:39:06;;;;;;;14.83;4.70;;;9.20;97.30;;;;;;5025134;28;20177;-84
2021/11/19 00:41:32;;;;;;;10.47;4.33;;;9.20;97.30;;;;;;5031473;28;21139;-84
2021/11/19 00:43:58;;;;;;;11.07;4.23;;;9.20;97.30;;;;;;5031898;28;20418;-84
2021/11/19 00:46:25;;;;;;;11.83;5.20;;;9.20;97.30;;;;;;5031657;28;20438;-81
2021/11/19 00:48:51;;;;;;;13.53;4.97;;;9.20;97.30;;;;;;5031363;28;20928;-80
2021/11/19 00:51:21;;;;;;;11.53;6.07;;;9.20;97.30;;;;;;5031499;28;20835;-82
2021/11/19 00:53:50;;;;;;;12.27;6.27;;;9.20;97.30;;;;;;5031098;28;20417;-81
2021/11/19 00:56:18;;;;;;;20.17;5.43;;;9.20;97.30;;;;;;5032221;28;20444;-82
2021/11/19 00:58:47;;;;;;;16.70;5.53;;;9.20;97.30;;;;;;5031434;28;20419;-81
2021/11/19 01:01:16;;;;;;;14.00;5.20;;;9.20;97.30;;;;;;5030770;28;20459;-79
2021/11/19 01:03:42;;;;;;;14.90;5.33;;;9.20;97.30;;;;;;5031349;28;20404;-81
2021/11/19 01:06:08;;;;;;;19.00;5.53;;;9.20;97.30;;;;;;5030798;28;20529;-83
2021/11/19 01:08:34;;;;;;;12.17;4.77;;;9.20;97.30;;;;;;5030094;28;20420;-84
2021/11/19 01:11:02;;;;;;;11.00;5.63;;;9.20;97.30;;;;;;5030167;28;20235;-83
2021/11/19 01:13:30;;;;;;;13.10;5.40;;;9.20;97.30;;;;;;5030790;28;20420;-83
2021/11/19 01:16:04;;;;;;;12.53;4.87;;;9.20;97.30;;;;;;5030445;28;20440;-84
2021/11/19 01:18:38;;;;;;;23.37;6.10;;;9.20;97.30;;;;;;5015657;28;20396;-83
2021/11/19 01:21:06;;;;;;;18.20;5.90;;;9.30;97.30;;;;;;5030060;28;20463;-80
2021/11/19 01:23:34;;;;;;;14.07;6.30;;;9.30;97.30;;;;;;5015034;28;20407;-83
2021/11/19 01:26:19;;;;;;;13.13;5.20;;;9.30;97.30;;;;;;5015945;28;20436;-82
2021/11/19 01:28:45;;;;;;;14.57;5.97;;;9.30;97.30;;;;;;5015504;28;20442;-84
2021/11/19 01:31:18;;;;;;;18.00;5.87;;;9.30;97.30;;;;;;5030528;28;20424;-83
2021/11/19 01:33:44;;;;;;;13.70;5.90;;;9.30;97.30;;;;;;5026675;28;20915;-82
2021/11/19 01:36:11;;;;;;;14.90;5.33;;;9.30;97.30;;;;;;5010810;28;20468;-84
2021/11/19 01:38:37;;;;;;;14.03;5.10;;;9.30;97.30;;;;;;5010299;28;20504;-83
2021/11/19 01:41:15;;;;;;;11.40;5.03;;;9.30;97.30;;;;;;5010824;28;20459;-83
2021/11/19 01:43:41;;;;;;;14.07;4.87;;;9.30;97.30;;;;;;5009866;28;20420;-84
2021/11/19 01:46:11;;;;;;;10.00;4.83;;;9.30;97.30;;;;;;5009810;28;20440;-83
2021/11/19 01:48:39;;;;;;;17.17;5.43;;;9.30;97.30;;;;;;5011856;28;20497;-83
2021/11/19 01:51:10;;;;;;;26.93;5.83;;;9.30;97.30;;;;;;5029836;28;20460;-84
2021/11/19 01:53:43;;;;;;;17.03;5.67;;;9.30;97.30;;;;;;5029416;28;21060;-83
2021/11/19 01:56:15;;;;;;;20.20;5.90;;;9.30;97.30;;;;;;5029667;28;20431;-84
2021/11/19 01:58:54;;;;;;;12.30;6.10;;;9.30;97.30;;;;;;5014311;28;20466;-83
2021/11/19 02:01:24;;;;;;;8.90;5.40;;;9.30;97.30;;;;;;5029502;28;20443;-83
2021/11/19 02:03:55;;;;;;;11.37;4.30;;;9.30;97.30;;;;;;5031927;28;20436;-84
2021/11/19 02:06:32;;;;;;;13.03;7.67;;;9.30;97.30;;;;;;5026431;28;20841;-81
2021/11/19 02:08:59;;;;;;;11.10;4.80;;;9.30;97.30;;;;;;5013021;28;20830;-83
2021/11/19 02:11:52;;;;;;;11.00;5.80;;;9.30;97.30;;;;;;5012668;28;20463;-83
2021/11/19 02:14:36;;;;;;;10.27;4.17;;;9.30;97.30;;;;;;5014107;28;20428;-84
2021/11/19 02:17:03;;;;;;;11.00;5.20;;;9.30;97.30;;;;;;5032252;28;20408;-84
2021/11/19 02:19:54;;;;;;;18.40;5.53;;;9.30;97.30;;;;;;5017330;28;20921;-84
2021/11/19 02:22:24;;;;;;;10.23;4.70;;;9.30;97.30;;;;;;5017134;28;20503;-80
2021/11/19 02:24:58;;;;;;;14.57;5.10;;;9.30;97.30;;;;;;5016011;28;20471;-82
2021/11/19 02:27:57;;;;;;;23.20;8.37;;;9.30;97.30;;;;;;5031878;28;20922;-82
2021/11/19 02:30:34;;;;;;;13.80;5.07;;;9.30;97.30;;;;;;5011684;28;20423;-84
2021/11/19 02:33:08;;;;;;;10.27;4.60;;;9.30;97.30;;;;;;5031048;28;20435;-84
2021/11/19 02:35:41;;;;;;;8.70;4.47;;;9.40;97.30;;;;;;5030921;28;20773;-83
2021/11/19 02:38:11;;;;;;;10.63;4.20;;;9.40;97.30;;;;;;5031297;28;20404;-81
2021/11/19 02:40:39;;;;;;;12.70;4.70;;;9.40;97.30;;;;;;5030682;28;20547;-82
2021/11/19 02:43:21;;;;;;;11.17;3.80;;;9.40;97.30;;;;;;5015177;28;20466;-83
2021/11/19 02:45:50;;;;;;;10.90;4.80;;;9.40;97.30;;;;;;5015578;28;20438;-85
2021/11/19 02:48:19;;;;;;;8.63;5.53;;;9.40;97.30;;;;;;5031079;28;20407;-81
2021/11/19 02:50:46;;;;;;;12.80;4.80;;;9.40;97.30;;;;;;5015881;28;20928;-83
2021/11/19 02:53:13;;;;;;;13.37;5.40;;;9.40;97.30;;;;;;5031327;28;20420;-81
2021/11/19 02:55:50;;;;;;;14.17;4.93;;;9.40;97.30;;;;;;5031012;28;20523;-83
2021/11/19 02:58:26;;;;;;;14.03;5.53;;;9.40;97.30;;;;;;5033135;28;20416;-84
2021/11/19 03:01:09;;;;;;;13.57;4.93;;;9.50;97.30;;;;;;5033490;28;20842;-83
2021/11/19 03:03:36;;;;;;;10.77;5.17;;;9.50;97.30;;;;;;5032341;28;20412;-83
2021/11/19 03:06:02;;;;;;;16.13;5.43;;;9.50;97.30;;;;;;5032023;28;20464;-82
2021/11/19 03:08:28;;;;;;;17.53;4.67;;;9.50;97.30;;;;;;5033548;28;20424;-84
2021/11/19 03:10:56;;;;;;;10.80;4.37;;;9.50;97.30;;;;;;5031740;28;20549;-83
2021/11/19 03:13:27;;;;;;;11.57;5.20;;;9.50;97.30;;;;;;5031111;28;20180;-82
2021/11/19 03:15:54;;;;;;;11.83;4.43;;;9.50;97.30;;;;;;5031775;28;20447;-82
2021/11/19 03:18:22;;;;;;;10.90;4.13;;;9.50;97.30;;;;;;5016466;28;20434;-83
2021/11/19 03:20:50;;;;;;;13.30;5.20;;;9.50;97.30;;;;;;5032014;28;20463;-83
2021/11/19 03:23:16;;;;;;;10.63;5.03;;;9.50;97.30;;;;;;5031593;28;20413;-82
2021/11/19 03:25:43;;;;;;;9.40;4.77;;;9.50;97.30;;;;;;5031969;28;20452;-84
2021/11/19 03:28:12;;;;;;;13.93;4.90;;;9.50;97.30;;;;;;5030878;28;20427;-84
2021/11/19 03:30:40;;;;;;;7.30;4.40;;;9.50;97.30;;;;;;5031841;28;20427;-82
2021/11/19 03:33:12;;;;;;;16.90;6.10;;;9.50;97.30;;;;;;5031283;28;20412;-83
2021/11/19 03:35:38;;;;;;;8.53;4.70;;;9.60;97.30;;;;;;5031014;28;20436;-83
2021/11/19 03:38:04;;;;;;;9.40;4.33;;;9.60;97.30;;;;;;5031017;28;20430;-84
2021/11/19 03:40:35;;;;;;;9.37;4.47;;;9.60;97.30;;;;;;5031217;28;20197;-82
2021/11/19 03:43:05;;;;;;;13.60;4.70;;;9.60;97.30;;;;;;5031240;28;20408;-84
2021/11/19 03:45:39;;;;;;;12.17;5.57;;;9.60;97.30;;;;;;5031761;28;20436;-82
2021/11/19 03:48:06;;;;;;;23.00;5.27;;;9.60;97.30;;;;;;5031943;28;20408;-82
2021/11/19 03:50:41;;;;;;;10.03;4.67;;;9.60;97.30;;;;;;5032338;28;20420;-82
2021/11/19 03:53:08;;;;;;;12.73;4.70;;;9.60;97.30;;;;;;5030935;28;20404;-84
2021/11/19 03:55:37;;;;;;;9.30;4.70;;;9.60;97.30;;;;;;5029704;28;20432;-84
2021/11/19 03:58:03;;;;;;;9.30;5.43;;;9.60;97.30;;;;;;5030109;28;20415;-83
2021/11/19 04:00:33;;;;;;;12.70;4.80;;;9.60;97.30;;;;;;5013044;28;20849;-83
2021/11/19 04:02:59;;;;;;;11.70;4.90;;;9.60;97.30;;;;;;5029988;28;20417;-83
2021/11/19 04:05:27;;;;;;;15.53;5.13;;;9.60;97.30;;;;;;5028956;28;20973;-82
2021/11/19 04:07:52;;;;;;;10.23;4.30;;;9.60;97.30;;;;;;5029787;28;20412;-83
2021/11/19 04:10:18;;;;;;;9.30;5.00;;;9.60;97.30;;;;;;5029377;28;20420;-83
2021/11/19 04:12:45;;;;;;;13.20;4.63;;;9.60;97.30;;;;;;5014511;28;20185;-82
2021/11/19 04:15:16;;;;;;;8.90;4.80;;;9.60;97.30;;;;;;5029312;28;20857;-83
2021/11/19 04:17:42;;;;;;;9.70;4.43;;;9.70;97.30;;;;;;5030297;28;20417;-82
2021/11/19 04:20:09;;;;;;;11.47;5.00;;;9.70;97.30;;;;;;5030355;28;20529;-84
2021/11/19 04:22:34;;;;;;;13.63;5.40;;;9.70;97.30;;;;;;5013749;28;20191;-81
2021/11/19 04:25:04;;;;;;;11.47;4.77;;;9.70;97.30;;;;;;5029787;28;20436;-84
2021/11/19 04:27:31;;;;;;;9.40;4.77;;;9.70;97.30;;;;;;5029761;28;20184;-85
2021/11/19 04:29:57;;;;;;;11.90;5.10;;;9.70;97.30;;;;;;5029913;28;20496;-83
2021/11/19 04:32:23;;;;;;;14.33;4.37;;;9.70;97.30;;;;;;5029828;28;20460;-85
2021/11/19 04:34:51;;;;;;;11.87;5.23;;;9.70;97.30;;;;;;5029795;28;20174;-84
2021/11/19 04:37:18;;;;;;;9.23;4.67;;;9.70;97.30;;;;;;5029825;28;20408;-83
2021/11/19 04:39:44;;;;;;;10.10;5.30;;;9.70;97.30;;;;;;5029959;28;20422;-84
2021/11/19 04:42:10;;;;;;;8.33;5.00;;;9.70;97.30;;;;;;5030637;28;20424;-84
2021/11/19 04:44:36;;;;;;;11.70;4.30;;;9.70;97.30;;;;;;5029466;28;20816;-83
2021/11/19 04:47:03;;;;;;;20.43;5.40;;;9.70;97.30;;;;;;5029569;28;20412;-84
2021/11/19 04:49:29;;;;;;;7.37;4.20;;;9.70;97.30;;;;;;5029016;28;20973;-84
2021/11/19 04:51:55;;;;;;;11.87;5.37;;;9.70;97.30;;;;;;5029504;28;20412;-83
2021/11/19 04:54:22;;;;;;;14.30;6.20;;;9.70;97.30;;;;;;5013476;28;20178;-81
2021/11/19 04:56:51;;;;;;;8.53;5.00;;;9.70;97.30;;;;;;5030473;28;20436;-81
2021/11/19 04:59:17;;;;;;;7.40;4.40;;;9.70;97.30;;;;;;5028896;28;20427;-83
2021/11/19 05:01:50;;;;;;;12.63;5.10;;;9.70;97.30;;;;;;5029645;28;20483;-82
2021/11/19 05:04:16;;;;;;;13.10;5.03;;;9.70;97.30;;;;;;5014933;28;20392;-85
2021/11/19 05:06:42;;;;;;;15.10;5.70;;;9.70;97.30;;;;;;5014659;28;20658;-80
2021/11/19 05:09:09;;;;;;;11.07;4.83;;;9.70;97.30;;;;;;5029547;28;20452;-80
2021/11/19 05:11:41;;;;;;;13.70;5.70;;;9.70;97.30;;;;;;5029615;28;20187;-83
2021/11/19 05:14:06;;;;;;;13.50;5.80;;;9.70;97.30;;;;;;5029598;28;20436;-81
2021/11/19 05:16:33;;;;;;;11.10;5.67;;;9.70;97.30;;;;;;5030274;28;20968;-82
2021/11/19 05:18:59;;;;;;;8.43;4.60;;;9.70;97.30;;;;;;5030277;28;20184;-83
2021/11/19 05:21:24;;;;;;;15.70;5.50;;;9.70;97.30;;;;;;5029462;28;20471;-83
2021/11/19 05:23:50;;;;;;;11.60;5.13;;;9.70;97.30;;;;;;5029726;28;20199;-84
2021/11/19 05:26:17;;;;;;;14.17;5.50;;;9.70;97.30;;;;;;5030684;28;20292;-80
2021/11/19 05:28:43;;;;;;;9.17;5.13;;;9.70;97.30;;;;;;5014459;28;20177;-85
2021/11/19 05:31:10;;;;;;;15.37;5.77;;;9.70;97.30;;;;;;5015919;28;20519;-85
2021/11/19 05:33:38;;;;;;;12.13;5.90;;;9.60;97.30;;;;;;5030769;28;20420;-84
2021/11/19 05:36:05;;;;;;;12.07;4.80;;;9.60;97.30;;;;;;5030787;28;20470;-82
2021/11/19 05:38:31;;;;;;;11.17;5.50;;;9.70;97.30;;;;;;5016931;28;20430;-84
2021/11/19 05:40:57;;;;;;;15.97;5.20;;;9.70;97.30;;;;;;5034096;28;20505;-85
2021/11/19 05:43:24;;;;;;;12.53;5.90;;;9.60;97.30;;;;;;5033809;28;20531;-81
2021/11/19 05:45:50;;;;;;;16.57;6.90;;;9.60;97.30;;;;;;5019163;28;20466;-81
2021/11/19 05:48:16;;;;;;;12.73;5.50;;;9.60;97.30;;;;;;5033909;28;20503;-81
2021/11/19 05:50:44;;;;;;;15.53;5.70;;;9.70;97.30;;;;;;5033165;28;20654;-84
2021/11/19 05:53:10;;;;;;;12.90;5.93;;;9.60;97.30;;;;;;5032606;28;20188;-84
2021/11/19 05:55:39;;;;;;;19.63;6.10;;;9.60;97.30;;;;;;5032679;28;20509;-84
2021/11/19 05:58:06;;;;;;;18.83;6.40;;;9.60;97.30;;;;;;5033310;28;20434;-84
2021/11/19 06:00:37;;;;;;;13.47;5.50;;;9.60;97.30;;;;;;5018542;28;20459;-85
2021/11/19 06:03:02;;;;;;;11.63;5.70;;;9.60;97.30;;;;;;5017533;28;20902;-82
2021/11/19 06:05:29;;;;;;;15.17;5.63;;;9.60;97.30;;;;;;5032832;28;20463;-82
2021/11/19 06:07:54;;;;;;;11.57;5.00;;;9.60;97.30;;;;;;5032631;28;20174;-80
2021/11/19 06:10:25;;;;;;;14.43;5.40;;;9.60;97.30;;;;;;5016219;28;20499;-82
2021/11/19 06:12:56;;;;;;;11.67;5.17;;;9.60;97.30;;;;;;5032725;28;20523;-82
2021/11/19 06:15:25;;;;;;;20.10;6.60;;;9.60;97.30;;;;;;5033548;28;20526;-87
2021/11/19 06:18:10;;;;;;;14.27;6.27;;;9.60;97.30;;;;;;5033093;28;20490;-88
2021/11/19 06:20:40;;;;;;;12.00;5.40;;;9.60;97.30;;;;;;5033077;28;20455;-85
2021/11/19 06:23:10;;;;;;;14.57;6.43;;;9.60;97.30;;;;;;5033026;28;20412;-83
2021/11/19 06:25:38;;;;;;;11.77;5.00;;;9.60;97.30;;;;;;5032912;28;20514;-82
2021/11/19 06:28:08;;;;;;;17.50;5.80;;;9.60;97.30;;;;;;5033368;28;20427;-82
2021/11/19 06:30:34;;;;;;;12.60;5.83;;;9.60;97.30;;;;;;5032793;28;20416;-83
2021/11/19 06:33:00;;;;;;;18.13;6.43;;;9.60;97.30;;;;;;5031714;28;20549;-81
2021/11/19 06:35:26;;;;;;;12.43;5.27;;;9.60;97.30;;;;;;5032383;28;20954;-82
2021/11/19 06:37:52;;;;;;;26.30;6.10;;;9.70;97.30;;;;;;5032549;28;20408;-84
2021/11/19 06:40:28;;;;;;;17.30;6.40;;;9.70;97.30;;;;;;5031731;28;20539;-81
2021/11/19 06:42:57;;;;;;;10.50;5.77;;;9.70;97.30;;;;;;5032585;28;20264;-84
2021/11/19 06:45:22;;;;;;;9.97;5.13;;;9.70;97.30;;;;;;5032561;28;20523;-81
2021/11/19 06:47:48;;;;;;;12.23;5.77;;;9.70;97.30;;;;;;5031864;28;20739;-83
2021/11/19 06:50:16;;;;;;;15.23;6.60;;;9.70;97.30;;;;;;5031708;28;20184;-83
2021/11/19 06:52:42;;;;;;;15.07;5.97;;;9.70;97.30;;;;;;5032136;28;20244;-83
2021/11/19 06:55:09;;;;;;;16.00;6.00;;;9.70;97.30;;;;;;5031985;28;20468;-83
2021/11/19 06:57:36;;;;;;;13.67;6.90;;;9.70;97.30;;;;;;5031544;28;20268;-84
2021/11/19 07:00:06;;;;;;;12.13;6.13;;;9.70;97.30;;;;;;5031582;28;20420;-83
2021/11/19 07:02:32;;;;;;;12.80;6.70;;;9.80;97.30;;;;;;5031973;28;20442;-81
2021/11/19 07:04:57;;;;;;;19.27;7.10;;;9.80;97.30;;;;;;5031628;28;20987;-84
2021/11/19 07:07:23;;;;;;;16.33;7.23;;;9.80;97.30;;;;;;5031611;28;20177;-83
2021/11/19 07:09:50;;;;;;;13.40;7.07;;;9.80;97.30;;;;;;5015261;28;20177;-84
2021/11/19 07:12:16;;;;;;;16.43;6.90;;;9.80;97.30;;;;;;5031449;28;20164;-84
2021/11/19 07:14:42;;;;;;;15.03;6.90;;;9.90;97.30;;;;;;5016056;28;20439;-82
2021/11/19 07:17:09;;;;;;;13.47;6.50;;;9.90;97.30;;;;;;5031858;28;20785;-82
2021/11/19 07:19:36;;;;;;;16.27;6.80;;;9.90;97.30;;;;;;5032092;28;20259;-83
2021/11/19 07:22:02;;;;;;;11.70;6.43;;;9.90;97.30;;;;;;5031855;28;20509;-84
2021/11/19 07:24:28;;;;;;;15.10;7.57;;;10.00;97.30;;;;;;5032351;28;20412;-83
2021/11/19 07:26:53;;;;;;;15.40;6.57;;;10.00;97.30;;;;;;5032189;28;20201;-82
2021/11/19 07:29:20;;;;;;;13.10;6.87;;;10.00;97.30;;;;;;5016595;28;20408;-83
2021/11/19 07:31:45;;;;;;;11.33;6.10;;;10.00;97.30;;;;;;5032024;28;20181;-84
2021/11/19 07:34:11;;;;;;;11.77;6.03;;;10.00;97.30;;;;;;5016871;28;20419;-84
2021/11/19 07:36:37;;;;;;;9.43;5.50;;;10.10;97.30;;;;;;5031812;28;20197;-82
2021/11/19 07:39:05;;;;;;;11.37;5.33;;;10.10;97.30;;;;;;5032098;28;20181;-82
2021/11/19 07:41:31;;;;;;;11.80;6.43;;;10.10;97.30;;;;;;5031473;28;20201;-82
2021/11/19 07:43:56;;;;;;;13.77;6.33;;;10.10;97.30;;;;;;5031463;28;20416;-83
2021/11/19 07:46:26;;;;;;;11.63;5.53;;;10.20;97.30;;;;;;5031440;28;20725;-83
2021/11/19 07:48:52;;;;;;;13.47;6.07;;;10.20;97.30;;;;;;5031330;28;20177;-83
2021/11/19 07:51:22;;;;;;;14.87;7.10;;;10.20;97.30;;;;;;5031611;28;20482;-83
2021/11/19 07:53:49;;;;;;;9.57;5.70;;;10.20;97.30;;;;;;5031441;28;20459;-83
2021/11/19 07:56:17;;;;;;;12.10;6.03;;;10.30;97.30;;;;;;5031329;28;20539;-83
2021/11/19 07:58:43;;;;;;;14.57;6.43;;;10.30;97.30;;;;;;5031031;28;20465;-82
2021/11/19 08:01:09;;;;;;;11.47;5.80;;;10.30;97.30;;;;;;5030513;28;20996;-84
2021/11/19 08:03:35;;;;;;;14.60;6.83;;;10.30;97.30;;;;;;5031155;28;20408;-84
2021/11/19 08:06:04;;;;;;;13.10;5.97;;;10.30;97.30;;;;;;5030759;28;20475;-82
2021/11/19 08:08:32;;;;;;;15.93;5.93;;;10.40;97.30;;;;;;5030612;28;20188;-82
2021/11/19 08:11:00;;;;;;;13.87;7.30;;;10.40;97.30;;;;;;5015665;28;20419;-80
2021/11/19 08:13:26;;;;;;;11.40;6.10;;;10.40;97.30;;;;;;5030939;28;20421;-83
2021/11/19 08:15:51;;;;;;;13.10;5.23;;;10.40;97.30;;;;;;5031060;28;20511;-81
2021/11/19 08:18:23;;;;;;;12.90;6.00;;;10.40;97.30;;;;;;5030617;28;20204;-81
2021/11/19 08:20:50;;;;;;;10.83;6.37;;;10.40;97.30;;;;;;5030467;28;20581;-83
2021/11/19 08:23:21;;;;;;;11.47;5.70;;;10.40;97.30;;;;;;5030417;28;20463;-83
2021/11/19 08:25:47;;;;;;;11.57;6.30;;;10.40;97.30;;;;;;5014585;28;20459;-83
2021/11/19 08:28:13;;;;;;;13.07;6.40;;;10.40;97.30;;;;;;5034313;28;20416;-82
2021/11/19 08:30:44;;;;;;;9.30;5.30;;;10.40;97.30;;;;;;5031939;28;20431;-82
2021/11/19 08:33:12;;;;;;;10.97;6.03;;;10.50;97.30;;;;;;5029994;28;20467;-82
2021/11/19 08:35:40;;;;;;;11.10;5.70;;;10.50;97.30;;;;;;5029754;28;20501;-82
2021/11/19 08:38:17;;;;;;;11.17;5.73;;;10.50;97.30;;;;;;5030003;28;20420;-82
2021/11/19 08:40:44;;;;;;;12.30;5.17;;;10.50;97.30;;;;;;5015247;28;20454;-81
2021/11/19 08:43:19;;;;;;;14.97;6.50;;;10.50;97.30;;;;;;5030134;28;20423;-81
2021/11/19 08:45:46;;;;;;;12.33;5.83;;;10.50;97.30;;;;;;5014670;28;20443;-79
2021/11/19 08:48:12;;;;;;;12.03;5.60;;;10.50;97.30;;;;;;5030411;28;20408;-80
2021/11/19 08:50:40;;;;;;;11.47;5.30;;;10.50;97.30;;;;;;5030082;28;20424;-83
2021/11/19 08:53:09;;;;;;;13.07;6.23;;;10.50;97.30;;;;;;5029981;28;20416;-82
2021/11/19 08:55:50;;;;;;;16.83;7.10;;;10.60;97.30;;;;;;5015075;28;20439;-81
2021/11/19 08:58:18;;;;;;;13.90;5.73;;;10.60;97.30;;;;;;5029752;28;20404;-82
2021/11/19 09:00:45;;;;;;;11.83;6.37;;;10.60;97.30;;;;;;5013315;28;20456;-83
2021/11/19 09:03:11;;;;;;;10.77;5.10;;;10.60;97.30;;;;;;5029441;28;20405;-83
2021/11/19 09:05:39;;;;;;;9.67;4.90;;;10.60;97.30;;;;;;5029830;28;20552;-81
2021/11/19 09:08:06;;;;;;;9.50;5.27;;;10.60;97.30;;;;;;5029717;28;20526;-82
2021/11/19 09:10:32;;;;;;;13.10;5.90;;;10.60;97.30;;;;;;5029729;28;20430;-84
2021/11/19 09:12:59;;;;;;;10.87;5.60;;;10.60;97.30;;;;;;5029437;28;20987;-83
2021/11/19 09:15:26;;;;;;;11.43;5.30;;;10.70;97.30;;;;;;5029985;28;20824;-83
2021/11/19 09:18:19;;;;;;;9.73;5.13;;;10.70;97.30;;;;;;5029624;28;20420;-80
2021/11/19 09:20:47;;;;;;;16.60;5.77;;;10.70;97.30;;;;;;5029686;28;20474;-82
2021/11/19 09:23:20;;;;;;;9.63;4.87;;;10.70;97.30;;;;;;5030177;28;20412;-82
2021/11/19 09:25:48;;;;;;;10.00;5.23;;;10.70;97.30;;;;;;5029351;28;20443;-79
2021/11/19 09:28:16;;;;;;;9.87;5.20;;;10.70;97.30;;;;;;5029438;28;20416;-81
2021/11/19 09:30:45;;;;;;;9.73;4.93;;;10.70;97.30;;;;;;5014870;28;20408;-83
2021/11/19 09:33:15;;;;;;;9.27;4.87;;;10.70;97.30;;;;;;5029811;28;20459;-83
2021/11/19 09:35:41;;;;;;;8.93;5.50;;;10.70;97.30;;;;;;5030102;28;20555;-83
2021/11/19 09:38:08;;;;;;;10.87;5.40;;;10.70;97.30;;;;;;5030476;28;20715;-82
2021/11/19 09:40:44;;;;;;;10.10;5.17;;;10.70;97.30;;;;;;5030207;28;20567;-82
2021/11/19 09:43:10;;;;;;;12.90;5.47;;;10.70;97.30;;;;;;5030744;28;20817;-82
2021/11/19 09:46:10;;;;;;;8.33;4.87;;;10.70;97.30;;;;;;5030487;28;20488;-83
2021/11/19 09:48:41;;;;;;;9.10;4.93;;;10.70;97.30;;;;;;5014783;28;20651;-84
2021/11/19 09:51:43;;;;;;;14.40;4.80;;;10.70;97.30;;;;;;5030188;28;20424;-83
2021/11/19 09:54:56;;;;;;;8.30;5.20;;;10.70;97.30;;;;;;5030423;28;20940;-82
2021/11/19 09:57:46;;;;;;;7.67;5.10;;;10.80;97.30;;;;;;4961153;28;20435;-84
2021/11/19 10:01:00;;;;;;;6.77;4.40;;;10.80;97.30;;;;;;5014469;28;20452;-83
2021/11/19 10:04:01;;;;;;;8.47;5.13;;;10.80;97.30;;;;;;5008013;28;20456;-83
2021/11/19 10:06:37;;;;;;;11.97;5.37;;;10.80;97.30;;;;;;5028885;28;20525;-83
2021/11/19 10:09:23;;;;;;;10.17;5.77;;;10.80;97.30;;;;;;5030301;28;20482;-82
2021/11/19 10:11:58;;;;;;;7.43;4.43;;;10.80;97.30;;;;;;5012499;28;20944;-83
2021/11/19 10:14:36;;;;;;;9.90;4.93;;;10.80;97.30;;;;;;5029781;28;20416;-82
2021/11/19 10:17:19;;;;;;;6.57;4.10;;;10.80;97.30;;;;;;5029924;28;20466;-81
2021/11/19 10:20:07;;;;;;;7.93;5.03;;;10.80;97.30;;;;;;5029708;28;20416;-81
2021/11/19 10:22:41;;;;;;;11.53;5.60;;;10.80;97.30;;;;;;5029947;28;20934;-84
2021/11/19 10:25:34;;;;;;;8.50;4.47;;;10.80;97.30;;;;;;5032570;28;20889;-82
2021/11/19 10:28:04;;;;;;;12.40;5.53;;;10.90;97.30;;;;;;5033497;28;20400;-82
2021/11/19 10:30:50;;;;;;;8.10;4.30;;;10.90;97.30;;;;;;5033377;28;20910;-84
2021/11/19 10:33:25;;;;;;;9.33;5.37;;;10.90;97.30;;;;;;5033310;28;20411;-84
2021/11/19 10:36:27;;;;;;;8.33;4.70;;;11.00;97.30;;;;;;5033529;28;20439;-85
2021/11/19 10:38:56;;;;;;;7.10;4.67;;;11.00;97.30;;;;;;5011254;28;21104;-81
2021/11/19 10:41:56;;;;;;;8.10;4.40;;;11.10;97.30;;;;;;5033224;28;20483;-83
2021/11/19 10:45:07;;;;;;;11.13;4.50;;;11.20;97.30;;;;;;5032718;28;20419;-84
2021/11/19 10:48:13;;;;;;;9.87;4.10;;;11.20;97.30;;;;;;4957086;29;20813;-83
2021/11/19 10:51:05;;;;;;;8.63;4.07;;;11.20;97.30;;;;;;4956933;29;20422;-84
2021/11/19 10:54:20;;;;;;;7.53;4.13;;;11.20;97.30;;;;;;5014579;28;20416;-83
2021/11/19 10:57:22;;;;;;;8.53;4.20;;;11.20;97.30;;;;;;5032058;28;20440;-84
2021/11/19 11:00:07;;;;;;;6.43;4.67;;;11.20;97.30;;;;;;5032054;28;20416;-84
2021/11/19 11:02:54;;;;;;;6.40;3.77;;;11.20;97.30;;;;;;5032845;28;20427;-82
2021/11/19 11:05:40;;;;;;;7.47;4.00;;;11.20;97.30;;;;;;5002372;28;21307;-82
2021/11/19 11:08:23;;;;;;;7.67;4.23;;;11.20;97.30;;;;;;5032086;28;20412;-82
2021/11/19 11:10:57;;;;;;;7.37;4.53;;;11.20;97.30;;;;;;5031636;28;20439;-83
2021/11/19 11:13:37;;;;;;;6.10;3.10;;;11.20;97.30;;;;;;5031280;28;20424;-82
2021/11/19 11:16:07;;;;;;;7.03;3.50;;;11.20;97.30;;;;;;5031712;28;20440;-82
2021/11/19 11:18:37;;;;;;;5.33;3.20;;;11.20;97.30;;;;;;5031670;28;20412;-84
2021/11/19 11:21:21;;;;;;;5.67;3.60;;;11.20;97.30;;;;;;5031032;28;20534;-82
2021/11/19 11:23:47;;;;;;;5.97;3.60;;;11.20;97.30;;;;;;5015651;28;20403;-83
2021/11/19 11:26:18;;;;;;;9.37;3.30;;;11.30;97.30;;;;;;5031364;28;20436;-82
2021/11/19 11:29:20;;;;;;;7.00;3.40;;;11.30;97.30;;;;;;5031421;28;20443;-82
2021/11/19 11:32:04;;;;;;;3.53;2.87;;;11.30;97.30;;;;;;5030777;28;20798;-83
2021/11/19 11:34:55;;;;;;;5.07;3.43;;;11.30;97.30;;;;;;5030492;28;20489;-83
2021/11/19 11:37:44;;;;;;;5.20;2.93;;;11.30;97.30;;;;;;5030581;28;20424;-84
2021/11/19 11:40:28;;;;;;;6.27;3.30;;;11.30;97.30;;;;;;5030446;28;20420;-85
2021/11/19 11:43:12;;;;;;;6.40;3.17;;;11.30;97.30;;;;;;5031072;28;20420;-82
2021/11/19 11:45:51;;;;;;;4.53;3.10;;;11.20;97.30;;;;;;5014849;28;20444;-82
2021/11/19 11:48:31;;;;;;;3.70;2.70;;;11.30;97.30;;;;;;5016290;28;20780;-83
2021/11/19 11:50:57;;;;;;;3.93;2.67;;;11.20;97.30;;;;;;5031308;28;20795;-84
2021/11/19 11:53:45;;;;;;;3.63;2.70;;;11.30;97.30;;;;;;5031577;28;20452;-83
2021/11/19 11:56:23;;;;;;;8.57;3.70;;;11.30;97.30;;;;;;4999648;28;20300;-85
2021/11/19 11:58:59;;;;;;;10.97;3.00;;;11.30;97.30;;;;;;5031182;28;20448;-84
2021/11/19 12:01:41;;;;;;;6.80;3.10;;;11.30;97.30;;;;;;5031285;28;20475;-83
2021/11/19 12:04:10;;;;;;;5.30;3.00;;;11.30;97.30;;;;;;5030763;28;20936;-83
2021/11/19 12:07:10;;;;;;;4.20;2.67;;;11.30;97.30;;;;;;5031000;28;20495;-84
2021/11/19 12:09:50;;;;;;;8.70;3.00;;;11.40;97.30;;;;;;5031459;28;20474;-84
2021/11/19 12:12:34;;;;;;;4.23;3.13;;;11.40;97.30;;;;;;5030779;28;20444;-83
2021/11/19 12:15:25;;;;;;;3.13;2.43;;;11.40;97.30;;;;;;5030902;28;20444;-83
2021/11/19 12:18:15;;;;;;;2.90;2.73;;;11.40;97.30;;;;;;5031048;28;20523;-83
2021/11/19 12:20:58;;;;;;;5.00;2.70;;;11.40;97.30;;;;;;5031163;28;20507;-82
2021/11/19 12:23:50;;;;;;;5.50;2.77;;;11.40;97.30;;;;;;5031559;28;20482;-83
2021/11/19 12:26:48;;;;;;;5.60;3.17;;;11.40;97.30;;;;;;5030861;28;20545;-85
2021/11/19 12:29:48;;;;;;;3.50;2.83;;;11.40;97.30;;;;;;4992993;28;20435;-84
2021/11/19 12:32:32;;;;;;;5.33;3.80;;;11.30;97.30;;;;;;5030203;28;20941;-84
2021/11/19 12:35:03;;;;;;;4.27;2.80;;;11.30;97.30;;;;;;5029701;28;20471;-83
2021/11/19 12:37:58;;;;;;;5.93;3.20;;;11.30;97.30;;;;;;5029949;28;20422;-84
2021/11/19 12:40:35;;;;;;;3.80;2.87;;;11.30;97.30;;;;;;5023469;28;20460;-84
2021/11/19 12:43:07;;;;;;;6.60;3.33;;;11.30;97.30;;;;;;5013690;28;20423;-84
2021/11/19 12:45:37;;;;;;;3.77;2.83;;;11.30;97.30;;;;;;5017424;28;20436;-83
2021/11/19 12:48:25;;;;;;;3.60;2.70;;;11.30;97.30;;;;;;5009793;28;20471;-83
2021/11/19 12:51:00;;;;;;;7.67;3.13;;;11.20;97.30;;;;;;4994662;28;20413;-83
2021/11/19 12:53:39;;;;;;;4.30;2.90;;;11.20;97.30;;;;;;5000674;28;20874;-85
2021/11/19 12:56:18;;;;;;;4.50;2.93;;;11.20;97.30;;;;;;5008263;28;20961;-82
2021/11/19 12:58:50;;;;;;;6.23;3.17;;;11.20;97.30;;;;;;5017615;28;20424;-84
2021/11/19 13:01:22;;;;;;;3.60;2.67;;;11.20;97.30;;;;;;5023271;28;20455;-84
2021/11/19 13:04:03;;;;;;;6.17;2.90;;;11.20;97.30;;;;;;4995248;28;20409;-82
2021/11/19 13:06:40;;;;;;;4.80;3.07;;;11.20;97.30;;;;;;5010655;28;20559;-83
2021/11/19 13:09:12;;;;;;;4.10;2.77;;;11.20;97.30;;;;;;5010609;28;20441;-84
2021/11/19 13:11:56;;;;;;;6.87;3.40;;;11.20;97.30;;;;;;5010277;28;20413;-84
2021/11/19 13:14:27;;;;;;;6.53;3.63;;;11.20;97.30;;;;;;5010511;28;20452;-84